createdAt,value
2018-10-02T00:00:54.855Z,10.30
2018-10-02T00:03:26.545Z,10.30
2018-10-02T00:05:58.657Z,10.40
2018-10-02T00:08:30.375Z,10.30
2018-10-02T00:11:08.646Z,10.30
2018-10-02T00:13:45.556Z,10.20
2018-10-02T00:16:19.566Z,10.20
2018-10-02T00:18:52.155Z,10.10
2018-10-02T00:21:23.305Z,10.10
2018-10-02T00:23:55.016Z,10.10
2018-10-02T00:26:27.636Z,10.10
2018-10-02T00:28:59.817Z,10.10
2018-10-02T00:31:31.026Z,10.10
2018-10-02T00:34:05.577Z,10.10
2018-10-02T00:36:37.345Z,10.10
2018-10-02T00:39:09.576Z,10.10
2018-10-02T00:41:41.486Z,10.10
2018-10-02T00:44:13.696Z,10.10
2018-10-02T00:46:45.733Z,10.10
2018-10-02T00:49:17.692Z,10.10
2018-10-02T00:51:49.673Z,10.10
2018-10-02T00:54:22.823Z,10.10
2018-10-02T00:56:54.893Z,10.20
2018-10-02T00:59:26.772Z,10.20
2018-10-02T01:01:59.513Z,10.20
2018-10-02T01:04:31.063Z,10.20
2018-10-02T01:07:02.523Z,10.30
2018-10-02T01:09:34.103Z,10.30
2018-10-02T01:12:06.292Z,10.30
2018-10-02T01:14:38.235Z,10.30
2018-10-02T01:17:08.943Z,10.30
2018-10-02T01:19:40.923Z,10.30
2018-10-02T01:22:12.613Z,10.30
2018-10-02T01:24:44.833Z,10.30
2018-10-02T01:27:16.662Z,10.30
2018-10-02T01:29:48.843Z,10.30
2018-10-02T01:32:28.678Z,10.30
2018-10-02T01:35:00.523Z,10.30
2018-10-02T01:37:33.302Z,10.30
2018-10-02T01:40:05.063Z,10.20
2018-10-02T01:42:36.872Z,10.20
2018-10-02T01:45:07.844Z,10.10
2018-10-02T01:47:39.982Z,10.10
2018-10-02T01:50:10.763Z,10.10
2018-10-02T01:52:42.786Z,10.10
2018-10-02T01:55:16.029Z,10.10
2018-10-02T01:57:47.102Z,10.20
2018-10-02T02:00:20.137Z,10.20
2018-10-02T02:02:51.352Z,10.10
2018-10-02T02:05:27.734Z,10.10
2018-10-02T02:07:59.095Z,10.10
2018-10-02T02:10:32.073Z,10.10
2018-10-02T02:13:03.453Z,10.10
2018-10-02T02:15:35.673Z,10.10
2018-10-02T02:18:10.043Z,10.10
2018-10-02T02:20:40.973Z,10.10
2018-10-02T02:23:11.553Z,10.10
2018-10-02T02:25:44.663Z,10.10
2018-10-02T02:28:16.314Z,10.00
2018-10-02T02:30:48.186Z,10.00
2018-10-02T02:33:19.792Z,10.00
2018-10-02T02:35:51.102Z,10.00
2018-10-02T02:38:23.923Z,10.00
2018-10-02T02:40:55.373Z,9.90
2018-10-02T02:43:26.648Z,9.70
2018-10-02T02:45:57.903Z,9.60
2018-10-02T02:48:33.684Z,9.50
2018-10-02T02:51:09.723Z,9.50
2018-10-02T02:53:40.793Z,9.40
2018-10-02T02:56:12.262Z,9.40
2018-10-02T02:58:45.003Z,9.30
2018-10-02T03:01:16.693Z,9.30
2018-10-02T03:03:48.013Z,9.30
2018-10-02T03:06:23.941Z,9.30
2018-10-02T03:08:56.187Z,9.30
2018-10-02T03:11:27.342Z,9.30
2018-10-02T03:14:01.363Z,9.30
2018-10-02T03:16:33.962Z,9.30
2018-10-02T03:19:05.627Z,9.20
2018-10-02T03:21:37.103Z,9.20
2018-10-02T03:24:08.823Z,9.20
2018-10-02T03:26:39.383Z,9.20
2018-10-02T03:29:11.173Z,9.20
2018-10-02T03:31:42.594Z,9.30
2018-10-02T03:34:15.153Z,9.40
2018-10-02T03:36:47.013Z,9.40
2018-10-02T03:39:17.913Z,9.40
2018-10-02T03:41:48.695Z,9.50
2018-10-02T03:44:19.333Z,9.50
2018-10-02T03:46:50.993Z,9.50
2018-10-02T03:49:22.853Z,9.50
2018-10-02T03:51:56.922Z,9.50
2018-10-02T03:54:28.813Z,9.60
2018-10-02T03:57:00.994Z,9.50
2018-10-02T03:59:34.862Z,9.40
2018-10-02T04:02:06.885Z,9.50
2018-10-02T04:04:38.482Z,9.50
2018-10-02T04:07:09.983Z,9.50
2018-10-02T04:09:41.894Z,9.60
2018-10-02T04:12:12.613Z,9.60
2018-10-02T04:14:45.044Z,9.60
2018-10-02T04:17:15.652Z,9.50
2018-10-02T04:19:47.953Z,9.50
2018-10-02T04:22:18.953Z,9.50
2018-10-02T04:24:50.004Z,9.50
2018-10-02T04:27:22.132Z,9.50
2018-10-02T04:29:54.462Z,9.40
2018-10-02T04:32:30.213Z,9.50
2018-10-02T04:35:01.346Z,9.50
2018-10-02T04:37:33.524Z,9.60
2018-10-02T04:40:05.394Z,9.60
2018-10-02T04:42:37.572Z,9.50
2018-10-02T04:45:08.413Z,9.60
2018-10-02T04:47:40.893Z,9.60
2018-10-02T04:50:12.313Z,9.60
2018-10-02T04:52:44.673Z,9.60
2018-10-02T04:55:15.195Z,9.60
2018-10-02T04:57:47.243Z,9.60
2018-10-02T05:00:18.873Z,9.60
2018-10-02T05:02:50.533Z,9.60
2018-10-02T05:05:22.123Z,9.60
2018-10-02T05:07:54.473Z,9.60
2018-10-02T05:10:26.673Z,9.50
2018-10-02T05:12:57.883Z,9.50
2018-10-02T05:15:28.832Z,9.40
2018-10-02T05:17:59.873Z,9.40
2018-10-02T05:20:31.860Z,9.40
2018-10-02T05:23:03.603Z,9.40
2018-10-02T05:25:35.625Z,9.40
2018-10-02T05:28:07.933Z,9.30
2018-10-02T05:30:39.106Z,9.30
2018-10-02T05:33:10.063Z,9.30
2018-10-02T05:35:41.413Z,9.20
2018-10-02T05:38:13.055Z,9.20
2018-10-02T05:40:44.733Z,9.20
2018-10-02T05:43:17.163Z,9.20
2018-10-02T05:45:48.524Z,9.30
2018-10-02T05:48:19.952Z,9.30
2018-10-02T05:50:50.483Z,9.30
2018-10-02T05:53:21.362Z,9.30
2018-10-02T05:55:52.623Z,9.30
2018-10-02T05:58:24.495Z,9.30
2018-10-02T06:00:55.776Z,9.30
2018-10-02T06:03:26.993Z,9.30
2018-10-02T06:05:58.093Z,9.20
2018-10-02T06:08:29.333Z,9.30
2018-10-02T06:11:01.607Z,9.30
2018-10-02T06:13:32.024Z,9.20
2018-10-02T06:16:03.157Z,9.30
2018-10-02T06:18:35.374Z,9.30
2018-10-02T06:21:12.103Z,9.30
2018-10-02T06:23:46.013Z,9.30
2018-10-02T06:26:17.105Z,9.30
2018-10-02T06:28:47.950Z,9.30
2018-10-02T06:31:20.070Z,9.30
2018-10-02T06:33:52.202Z,9.30
2018-10-02T06:36:23.543Z,9.30
2018-10-02T06:38:55.500Z,9.40
2018-10-02T06:41:27.306Z,9.40
2018-10-02T06:43:59.853Z,9.40
2018-10-02T06:46:31.513Z,9.40
2018-10-02T06:49:03.463Z,9.40
2018-10-02T06:51:35.564Z,9.40
2018-10-02T06:54:07.143Z,9.40
2018-10-02T06:56:39.840Z,9.40
2018-10-02T06:59:11.714Z,9.40
2018-10-02T07:01:42.082Z,9.40
2018-10-02T07:04:13.343Z,9.40
2018-10-02T07:06:44.806Z,9.40
2018-10-02T07:09:15.885Z,9.50
2018-10-02T07:11:47.387Z,9.50
2018-10-02T07:14:18.602Z,9.50
2018-10-02T07:16:49.943Z,9.50
2018-10-02T07:19:21.183Z,9.50
2018-10-02T07:21:52.624Z,9.50
2018-10-02T07:24:24.553Z,9.50
2018-10-02T07:27:24.764Z,9.60
2018-10-02T07:29:55.405Z,9.60
2018-10-02T07:32:49.126Z,9.60
2018-10-02T07:35:19.995Z,9.60
2018-10-02T07:38:08.623Z,9.60
2018-10-02T07:40:40.115Z,9.70
2018-10-02T07:43:11.244Z,9.70
2018-10-02T07:45:41.895Z,9.70
2018-10-02T07:48:22.853Z,9.70
2018-10-02T07:50:55.236Z,9.70
2018-10-02T07:53:25.887Z,9.60
2018-10-02T07:55:56.873Z,9.60
2018-10-02T07:58:28.243Z,9.60
2018-10-02T08:01:00.855Z,9.60
2018-10-02T08:03:32.105Z,9.70
2018-10-02T08:06:03.561Z,9.70
2018-10-02T08:08:34.676Z,9.70
2018-10-02T08:11:06.814Z,9.70
2018-10-02T08:13:39.059Z,9.70
2018-10-02T08:16:10.343Z,9.70
2018-10-02T08:18:40.964Z,9.70
2018-10-02T08:21:12.685Z,9.80
2018-10-02T08:23:44.960Z,9.80
2018-10-02T08:26:16.023Z,9.80
2018-10-02T08:28:47.714Z,9.90
2018-10-02T08:31:19.894Z,9.90
2018-10-02T08:33:51.183Z,9.90
2018-10-02T08:36:22.738Z,9.90
2018-10-02T08:38:54.815Z,10.00
2018-10-02T08:41:25.993Z,10.10
2018-10-02T08:43:58.431Z,10.20
2018-10-02T08:46:30.315Z,10.20
2018-10-02T08:49:01.593Z,10.20
2018-10-02T08:51:33.734Z,10.20
2018-10-02T08:54:07.479Z,10.20
2018-10-02T08:56:39.243Z,10.30
2018-10-02T08:59:10.494Z,10.30
2018-10-02T09:01:41.613Z,10.30
2018-10-02T09:04:12.794Z,10.30
2018-10-02T09:06:45.424Z,10.30
2018-10-02T09:09:17.864Z,10.30
2018-10-02T09:11:48.824Z,10.30
2018-10-02T09:14:19.963Z,10.20
2018-10-02T09:16:51.454Z,10.30
2018-10-02T09:19:23.104Z,10.30
2018-10-02T09:21:54.803Z,10.50
2018-10-02T09:24:25.984Z,10.60
2018-10-02T09:26:57.363Z,10.60
2018-10-02T09:29:28.673Z,10.60
2018-10-02T09:33:04.613Z,10.60
2018-10-02T09:35:41.093Z,10.50
2018-10-02T09:38:17.404Z,10.50
2018-10-02T09:40:53.603Z,10.40
2018-10-02T09:43:29.608Z,10.30
2018-10-02T09:46:01.276Z,10.20
2018-10-02T09:48:32.453Z,10.20
2018-10-02T09:51:06.691Z,10.10
2018-10-02T09:53:37.923Z,10.10
2018-10-02T09:56:09.214Z,10.10
2018-10-02T09:58:40.744Z,10.20
2018-10-02T10:01:17.602Z,10.20
2018-10-02T10:03:48.663Z,10.20
2018-10-02T10:06:19.743Z,10.20
2018-10-02T10:08:52.224Z,10.20
2018-10-02T10:11:23.393Z,10.10
2018-10-02T10:13:54.636Z,10.10
2018-10-02T10:16:26.042Z,10.10
2018-10-02T10:18:58.073Z,10.10
2018-10-02T10:21:30.673Z,10.20
2018-10-02T10:24:02.313Z,10.30
2018-10-02T10:26:33.416Z,10.40
2018-10-02T10:29:05.183Z,10.60
2018-10-02T10:31:36.524Z,10.70
2018-10-02T10:34:07.813Z,10.80
2018-10-02T10:36:39.219Z,10.80
2018-10-02T10:39:11.683Z,10.80
2018-10-02T10:41:44.583Z,10.90
2018-10-02T10:44:17.102Z,10.90
2018-10-02T10:46:48.236Z,10.80
2018-10-02T10:49:18.893Z,10.80
2018-10-02T10:51:53.613Z,10.80
2018-10-02T10:54:25.863Z,10.80
2018-10-02T10:56:58.208Z,10.70
2018-10-02T10:59:29.013Z,10.70
2018-10-02T11:02:01.033Z,10.80
2018-10-02T11:04:35.216Z,11.00
2018-10-02T11:07:06.621Z,11.10
2018-10-02T11:09:37.972Z,11.30
2018-10-02T11:12:09.433Z,11.40
2018-10-02T11:14:41.252Z,11.50
2018-10-02T11:17:12.863Z,11.60
2018-10-02T11:19:44.303Z,11.70
2018-10-02T11:22:15.073Z,11.80
2018-10-02T11:24:47.204Z,11.80
2018-10-02T11:27:18.654Z,11.70
2018-10-02T11:29:49.924Z,11.70
2018-10-02T11:32:23.853Z,11.70
2018-10-02T11:34:55.375Z,11.70
2018-10-02T11:37:26.985Z,11.70
2018-10-02T11:39:58.784Z,11.70
2018-10-02T11:42:30.183Z,11.60
2018-10-02T11:45:02.846Z,11.50
2018-10-02T11:47:34.534Z,11.50
2018-10-02T11:50:07.534Z,11.40
2018-10-02T11:52:38.726Z,11.40
2018-10-02T11:55:09.652Z,11.40
2018-10-02T11:57:41.642Z,11.50
2018-10-02T12:00:13.325Z,11.70
2018-10-02T12:02:45.953Z,11.90
2018-10-02T12:05:17.460Z,12.00
2018-10-02T12:07:48.914Z,12.00
2018-10-02T12:10:20.593Z,12.10
2018-10-02T12:12:51.920Z,12.20
2018-10-02T12:15:23.636Z,12.40
2018-10-02T12:17:54.359Z,12.60
2018-10-02T12:20:25.741Z,12.70
2018-10-02T12:22:58.249Z,12.70
2018-10-02T12:25:29.760Z,12.60
2018-10-02T12:28:01.461Z,12.60
2018-10-02T12:30:33.270Z,12.50
2018-10-02T12:33:04.830Z,12.50
2018-10-02T12:35:37.000Z,12.50
2018-10-02T12:38:08.260Z,12.60
2018-10-02T12:40:39.663Z,12.70
2018-10-02T12:43:11.710Z,12.80
2018-10-02T12:45:43.870Z,12.80
2018-10-02T12:48:15.580Z,12.90
2018-10-02T12:50:46.401Z,13.00
2018-10-02T12:53:17.940Z,13.20
2018-10-02T12:55:49.693Z,13.20
2018-10-02T12:58:21.300Z,13.40
2018-10-02T13:00:52.900Z,13.50
2018-10-02T13:03:24.800Z,13.60
2018-10-02T13:05:58.060Z,13.60
2018-10-02T13:08:29.590Z,13.60
2018-10-02T13:11:00.780Z,13.70
2018-10-02T13:13:31.270Z,13.80
2018-10-02T13:16:03.700Z,13.80
2018-10-02T13:18:36.160Z,13.80
2018-10-02T13:21:07.200Z,13.80
2018-10-02T13:23:39.019Z,13.80
2018-10-02T13:26:10.189Z,13.70
2018-10-02T13:28:42.011Z,13.70
2018-10-02T13:31:14.570Z,13.70
2018-10-02T13:33:46.081Z,13.70
2018-10-02T13:36:17.210Z,13.80
2018-10-02T13:38:48.520Z,13.90
2018-10-02T13:41:21.089Z,13.90
2018-10-02T13:43:53.140Z,13.90
2018-10-02T13:46:24.520Z,13.90
2018-10-02T13:48:56.160Z,13.90
2018-10-02T13:51:28.619Z,13.90
2018-10-02T13:54:00.069Z,13.90
2018-10-02T13:56:31.530Z,14.00
2018-10-02T13:59:03.030Z,14.00
2018-10-02T14:01:35.331Z,14.00
2018-10-02T14:04:07.130Z,13.90
2018-10-02T14:06:38.559Z,13.80
2018-10-02T14:09:09.547Z,13.70
2018-10-02T14:11:40.917Z,13.50
2018-10-02T14:14:12.578Z,13.40
2018-10-02T14:16:43.758Z,13.40
2018-10-02T14:19:16.438Z,13.20
2018-10-02T14:21:47.768Z,13.20
2018-10-02T14:24:19.771Z,13.20
2018-10-02T14:26:50.780Z,13.20
2018-10-02T14:29:22.479Z,13.20
2018-10-02T14:31:54.848Z,13.20
2018-10-02T14:34:26.608Z,13.10
2018-10-02T14:36:58.518Z,13.10
2018-10-02T14:39:29.797Z,13.10
2018-10-02T14:42:01.178Z,13.10
2018-10-02T14:44:32.908Z,13.20
2018-10-02T14:47:03.988Z,13.20
2018-10-02T14:49:35.771Z,13.10
2018-10-02T14:52:07.178Z,13.00
2018-10-02T14:54:39.308Z,13.10
2018-10-02T14:57:10.380Z,13.00
2018-10-02T14:59:42.158Z,13.00
2018-10-02T15:02:15.399Z,13.00
2018-10-02T15:04:46.000Z,13.00
2018-10-02T15:07:18.768Z,12.90
2018-10-02T15:09:51.328Z,12.90
2018-10-02T15:12:22.608Z,12.90
2018-10-02T15:14:55.058Z,12.90
2018-10-02T15:17:27.327Z,12.90
2018-10-02T15:20:00.369Z,12.90
2018-10-02T15:22:33.078Z,12.80
2018-10-02T15:25:04.937Z,12.90
2018-10-02T15:27:35.478Z,12.80
2018-10-02T15:30:07.220Z,12.80
2018-10-02T15:32:38.470Z,12.70
2018-10-02T15:35:10.289Z,12.70
2018-10-02T15:37:42.453Z,12.70
2018-10-02T15:40:14.009Z,12.70
2018-10-02T15:42:47.187Z,12.70
2018-10-02T15:45:18.618Z,12.70
2018-10-02T15:47:50.092Z,12.60
2018-10-02T15:50:21.384Z,12.70
2018-10-02T15:52:52.545Z,12.70
2018-10-02T15:55:24.137Z,12.60
2018-10-02T15:57:54.655Z,12.70
2018-10-02T16:00:26.268Z,12.60
2018-10-02T16:02:57.389Z,12.60
2018-10-02T16:05:28.098Z,12.60
2018-10-02T16:07:59.248Z,12.50
2018-10-02T16:10:30.699Z,12.50
2018-10-02T16:13:01.899Z,12.50
2018-10-02T16:15:33.439Z,12.50
2018-10-02T16:18:04.901Z,12.40
2018-10-02T16:20:36.500Z,12.40
2018-10-02T16:23:07.911Z,12.40
2018-10-02T16:25:39.579Z,12.40
2018-10-02T16:28:10.661Z,12.30
2018-10-02T16:30:41.218Z,12.30
2018-10-02T16:33:11.488Z,12.20
2018-10-02T16:35:42.307Z,12.20
2018-10-02T16:38:14.189Z,12.20
2018-10-02T16:40:45.620Z,12.20
2018-10-02T16:43:16.639Z,12.10
2018-10-02T16:45:48.040Z,12.10
2018-10-02T16:48:18.787Z,12.10
2018-10-02T16:50:50.272Z,12.10
2018-10-02T16:53:21.157Z,12.10
2018-10-02T16:55:51.598Z,12.10
2018-10-02T16:58:22.368Z,12.10
2018-10-02T17:00:54.407Z,12.00
2018-10-02T17:03:25.278Z,12.00
2018-10-02T17:05:57.151Z,12.00
2018-10-02T17:08:27.638Z,12.00
2018-10-02T17:10:59.158Z,11.90
2018-10-02T17:13:30.157Z,11.90
2018-10-02T17:16:01.089Z,11.90
2018-10-02T17:18:32.957Z,11.90
2018-10-02T17:21:04.277Z,11.80
2018-10-02T17:23:35.039Z,11.80
2018-10-02T17:26:06.588Z,11.80
2018-10-02T17:28:38.199Z,11.80
2018-10-02T17:31:08.547Z,11.80
2018-10-02T17:33:39.597Z,11.80
2018-10-02T17:36:10.268Z,11.80
2018-10-02T17:38:44.128Z,11.70
2018-10-02T17:41:15.807Z,11.70
2018-10-02T17:43:47.078Z,11.70
2018-10-02T17:46:17.347Z,11.70
2018-10-02T17:48:56.803Z,11.70
2018-10-02T17:51:27.684Z,11.70
2018-10-02T17:53:58.917Z,11.70
2018-10-02T17:56:29.758Z,11.70
2018-10-02T17:59:00.738Z,11.70
2018-10-02T18:01:32.014Z,11.80
2018-10-02T18:04:04.677Z,11.70
2018-10-02T18:06:35.948Z,11.70
2018-10-02T18:09:07.598Z,11.70
2018-10-02T18:11:38.964Z,11.60
2018-10-02T18:14:09.968Z,11.60
2018-10-02T18:16:41.958Z,11.60
2018-10-02T18:19:13.172Z,11.60
2018-10-02T18:21:44.388Z,11.60
2018-10-02T18:24:15.708Z,11.60
2018-10-02T18:26:47.197Z,11.60
2018-10-02T18:29:17.159Z,11.60
2018-10-02T18:31:47.849Z,11.60
2018-10-02T18:34:18.418Z,11.60
2018-10-02T18:36:50.318Z,11.60
2018-10-02T18:39:22.248Z,11.60
2018-10-02T18:41:53.508Z,11.60
2018-10-02T18:44:24.528Z,11.60
2018-10-02T18:46:56.048Z,11.60
2018-10-02T18:49:28.238Z,11.60
2018-10-02T18:51:59.758Z,11.60
2018-10-02T18:54:31.160Z,11.50
2018-10-02T18:57:02.556Z,11.60
2018-10-02T18:59:34.229Z,11.60
2018-10-02T19:02:05.845Z,11.60
2018-10-02T19:04:38.018Z,11.50
2018-10-02T19:07:10.148Z,11.50
2018-10-02T19:09:41.539Z,11.50
2018-10-02T19:12:16.148Z,11.50
2018-10-02T19:14:48.928Z,11.50
2018-10-02T19:17:20.908Z,11.50
2018-10-02T19:19:57.208Z,11.50
2018-10-02T19:22:28.728Z,11.50
2018-10-02T19:25:04.724Z,11.50
2018-10-02T19:27:36.508Z,11.50
2018-10-02T19:30:13.067Z,11.50
2018-10-02T19:32:44.478Z,11.50
2018-10-02T19:35:16.068Z,11.50
2018-10-02T19:37:51.620Z,11.50
2018-10-02T19:40:24.288Z,11.50
2018-10-02T19:42:56.059Z,11.50
2018-10-02T19:45:33.468Z,11.50
2018-10-02T19:48:03.968Z,11.50
2018-10-02T19:50:34.818Z,11.50
2018-10-02T19:53:06.241Z,11.40
2018-10-02T19:55:38.788Z,11.50
2018-10-02T19:58:09.651Z,11.50
2018-10-02T20:00:43.678Z,11.40
2018-10-02T20:03:14.158Z,11.40
2018-10-02T20:05:45.448Z,11.50
2018-10-02T20:08:17.309Z,11.40
2018-10-02T20:10:51.077Z,11.40
2018-10-02T20:13:34.621Z,11.40
2018-10-02T20:16:10.817Z,11.40
2018-10-02T20:18:49.798Z,11.40
2018-10-02T20:21:27.735Z,11.30
2018-10-02T20:24:02.632Z,11.30
2018-10-02T20:26:42.823Z,11.30
2018-10-02T20:29:20.476Z,11.30
2018-10-02T20:31:57.403Z,11.40
2018-10-02T20:34:30.208Z,11.40
2018-10-02T20:37:11.298Z,11.30
2018-10-02T20:39:44.827Z,11.40
2018-10-02T20:42:20.088Z,11.40
2018-10-02T20:44:55.229Z,11.30
2018-10-02T20:47:34.467Z,11.30
2018-10-02T20:50:10.279Z,11.30
2018-10-02T20:52:46.328Z,11.30
2018-10-02T20:55:24.808Z,11.30
2018-10-02T20:57:58.328Z,11.40
2018-10-02T21:00:40.429Z,11.30
2018-10-02T21:03:11.738Z,11.30
2018-10-02T21:05:50.057Z,11.30
2018-10-02T21:08:32.508Z,11.30
2018-10-02T21:11:09.888Z,11.30
2018-10-02T21:13:55.503Z,11.30
2018-10-02T21:16:33.889Z,11.30
2018-10-02T21:19:14.988Z,11.30
2018-10-02T21:21:57.698Z,11.30
2018-10-02T21:24:49.528Z,11.30
2018-10-02T21:27:31.528Z,11.40
2018-10-02T21:30:09.332Z,11.40
2018-10-02T21:32:56.687Z,11.40
2018-10-02T21:35:40.138Z,11.50
2018-10-02T21:38:22.937Z,11.60
2018-10-02T21:41:01.621Z,11.60
2018-10-02T21:43:33.358Z,11.60
2018-10-02T21:46:13.689Z,11.60
2018-10-02T21:48:53.559Z,11.50
2018-10-02T21:51:29.828Z,11.50
2018-10-02T21:54:00.868Z,11.50
2018-10-02T21:56:32.438Z,11.50
2018-10-02T21:59:03.628Z,11.50
2018-10-02T22:01:34.498Z,11.50
2018-10-02T22:04:05.779Z,11.50
2018-10-02T22:06:41.688Z,11.50
2018-10-02T22:09:15.858Z,11.50
2018-10-02T22:11:56.402Z,11.50
2018-10-02T22:14:27.849Z,11.50
2018-10-02T22:16:58.470Z,11.50
2018-10-02T22:19:29.614Z,11.50
2018-10-02T22:22:00.680Z,11.50
2018-10-02T22:24:33.549Z,11.50
2018-10-02T22:27:05.600Z,11.50
2018-10-02T22:29:37.101Z,11.40
2018-10-02T22:32:07.878Z,11.50
2018-10-02T22:34:40.829Z,11.50
2018-10-02T22:37:11.650Z,11.40
2018-10-02T22:39:44.189Z,11.40
2018-10-02T22:42:15.159Z,11.40
2018-10-02T22:44:45.699Z,11.50
2018-10-02T22:47:19.730Z,11.40
2018-10-02T22:49:55.578Z,11.40
2018-10-02T22:52:26.120Z,11.40
2018-10-02T22:54:58.288Z,11.40
2018-10-02T22:57:28.999Z,11.40
2018-10-02T22:59:59.621Z,11.40
2018-10-02T23:02:30.249Z,11.40
2018-10-02T23:05:01.430Z,11.40
2018-10-02T23:07:33.790Z,11.40
2018-10-02T23:10:13.612Z,11.40
2018-10-02T23:12:45.240Z,11.40
2018-10-02T23:15:24.827Z,11.40
2018-10-02T23:18:04.551Z,11.40
2018-10-02T23:20:35.523Z,11.40
2018-10-02T23:23:08.491Z,11.40
2018-10-02T23:25:48.457Z,11.40
2018-10-02T23:28:20.248Z,11.40
2018-10-02T23:30:52.228Z,11.30
2018-10-02T23:33:23.688Z,11.30
2018-10-02T23:36:00.181Z,11.30
2018-10-02T23:38:31.988Z,11.40
2018-10-02T23:41:03.979Z,11.40
2018-10-02T23:43:42.717Z,11.30
2018-10-02T23:46:14.777Z,11.30
2018-10-02T23:48:46.368Z,11.30
2018-10-02T23:51:18.608Z,11.30
2018-10-02T23:53:51.499Z,11.30
2018-10-02T23:56:23.759Z,11.30
2018-10-02T23:58:55.127Z,11.30
